General Abelardo L. Rodríguez International Airport
MMTJ : now visible

Airfield :











YOU CAN JOIN US ON...

 
LOGIN :

Register | Disclaimer

   EN    FR    IT 

 









Legend :    VFR   Marginal VFR   IFR   Intensive IFR   Very Intensive IFR
Visi :
Ceiling :
>= 8 km
>= 3000ft
5 to 8 km
1000 to 3000 ft
1500m to 5 km
500 to 1000 ft
800 to 1500m
200 to 500 ft
< 800m
< 200 ft
Symbols :   Thunderstorms  Fog  Heavy snow  Heavy precipitations  Wind > 20 kt







- Airport Elevation : 489 ft
- IATA code : TIJ


MMTJ - General Abelardo L. Rodríguez International

METAR N/A
TAF TAF MMTJ
Valid from the 26 at 12:00 until the 27 at 18:00 UTC


261022Z 2612/2718 00000KT P6SM BKN025 TX17/2619Z TN12/2612Z
FM261300 00000KT 5SM -RA BKN020
TEMPO 2613/2617 4SM -RA BKN010
FM262100 31012KT P6SM BKN020 BKN080
TEMPO 2623/2703 6SM -RA BKN018
FM270300 30005KT 5SM -RA BKN020
TEMPO 2704/2708 2SM RA OVC010
FM271000 00000KT P6SM BKN015
FM271700 32012KT P6SM SCT020 BKN080
MMFR FIR / North America



MET'MAP, your aeronautical weather chart ! - Copyright ORBIFLY December 2007 - Disclaimer

ORBIFLY MET'MAP TEAM :

Programming & Development : Alexandra Zaïnal
Concept & Development : Baudouin d'Aumeries
Co-Development & Prog : Marc-Olivier Méhu
Technical & hardware support : Manuel Goepfert

Contact : metmap@orbifly.com




SOURCES & CREDITS :

   NOAA       Earth
Advisory